sensor_id;sensor_type;location;lat;lon;timestamp;P1;durP1;ratioP1;P2;durP2;ratioP2
64936;SDS011;51452;47.698;19.050;2023-05-10T00:01:55;3.70;;;1.98;;
64936;SDS011;51452;47.698;19.050;2023-05-10T00:04:21;5.65;;;2.28;;
64936;SDS011;51452;47.698;19.050;2023-05-10T00:06:46;4.70;;;2.67;;
64936;SDS011;51452;47.698;19.050;2023-05-10T00:09:11;3.85;;;2.08;;
64936;SDS011;51452;47.698;19.050;2023-05-10T00:11:37;4.68;;;2.25;;
64936;SDS011;51452;47.698;19.050;2023-05-10T00:14:02;4.15;;;2.25;;
64936;SDS011;51452;47.698;19.050;2023-05-10T00:16:28;3.63;;;2.20;;
64936;SDS011;51452;47.698;19.050;2023-05-10T00:18:53;7.68;;;3.20;;
64936;SDS011;51452;47.698;19.050;2023-05-10T00:21:18;4.38;;;2.13;;
64936;SDS011;51452;47.698;19.050;2023-05-10T00:23:44;4.53;;;2.35;;
64936;SDS011;51452;47.698;19.050;2023-05-10T00:26:10;6.00;;;2.60;;
64936;SDS011;51452;47.698;19.050;2023-05-10T00:28:35;2.88;;;2.10;;
64936;SDS011;51452;47.698;19.050;2023-05-10T00:31:01;4.75;;;2.10;;
64936;SDS011;51452;47.698;19.050;2023-05-10T00:33:26;3.70;;;2.42;;
64936;SDS011;51452;47.698;19.050;2023-05-10T00:35:51;4.40;;;2.13;;
64936;SDS011;51452;47.698;19.050;2023-05-10T00:38:17;4.18;;;2.55;;
64936;SDS011;51452;47.698;19.050;2023-05-10T00:40:42;3.10;;;2.42;;
64936;SDS011;51452;47.698;19.050;2023-05-10T00:43:08;5.25;;;2.42;;
64936;SDS011;51452;47.698;19.050;2023-05-10T00:45:34;3.45;;;2.65;;
64936;SDS011;51452;47.698;19.050;2023-05-10T00:48:01;4.78;;;2.85;;
64936;SDS011;51452;47.698;19.050;2023-05-10T00:50:27;4.82;;;2.38;;
64936;SDS011;51452;47.698;19.050;2023-05-10T00:52:53;5.35;;;2.88;;
64936;SDS011;51452;47.698;19.050;2023-05-10T00:55:18;3.05;;;2.45;;
64936;SDS011;51452;47.698;19.050;2023-05-10T00:57:44;4.07;;;2.72;;
64936;SDS011;51452;47.698;19.050;2023-05-10T01:00:10;5.20;;;2.70;;
64936;SDS011;51452;47.698;19.050;2023-05-10T01:02:37;4.80;;;2.83;;
64936;SDS011;51452;47.698;19.050;2023-05-10T01:05:03;4.50;;;2.67;;
64936;SDS011;51452;47.698;19.050;2023-05-10T01:07:28;4.80;;;2.30;;
64936;SDS011;51452;47.698;19.050;2023-05-10T01:09:54;3.72;;;2.50;;
64936;SDS011;51452;47.698;19.050;2023-05-10T01:12:20;4.13;;;2.67;;
64936;SDS011;51452;47.698;19.050;2023-05-10T01:14:46;3.60;;;2.40;;
64936;SDS011;51452;47.698;19.050;2023-05-10T01:17:12;5.72;;;2.88;;
64936;SDS011;51452;47.698;19.050;2023-05-10T01:19:37;3.85;;;2.38;;
64936;SDS011;51452;47.698;19.050;2023-05-10T01:33:41;6.53;;;2.65;;
64936;SDS011;51452;47.698;19.050;2023-05-10T01:36:26;4.53;;;2.50;;
64936;SDS011;51452;47.698;19.050;2023-05-10T01:42:08;3.33;;;2.55;;
64936;SDS011;51452;47.698;19.050;2023-05-10T01:47:13;4.65;;;3.00;;
64936;SDS011;51452;47.698;19.050;2023-05-10T01:49:45;5.50;;;2.78;;
64936;SDS011;51452;47.698;19.050;2023-05-10T01:52:15;3.92;;;2.75;;
64936;SDS011;51452;47.698;19.050;2023-05-10T01:55:04;4.60;;;2.55;;
64936;SDS011;51452;47.698;19.050;2023-05-10T01:57:37;6.10;;;2.63;;
64936;SDS011;51452;47.698;19.050;2023-05-10T02:00:06;8.87;;;2.80;;
64936;SDS011;51452;47.698;19.050;2023-05-10T02:02:33;3.90;;;2.72;;
64936;SDS011;51452;47.698;19.050;2023-05-10T02:05:04;8.68;;;2.80;;
64936;SDS011;51452;47.698;19.050;2023-05-10T02:07:31;6.28;;;2.95;;
64936;SDS011;51452;47.698;19.050;2023-05-10T02:10:00;4.40;;;3.10;;
64936;SDS011;51452;47.698;19.050;2023-05-10T02:12:26;4.10;;;2.83;;
64936;SDS011;51452;47.698;19.050;2023-05-10T02:14:53;3.80;;;2.58;;
64936;SDS011;51452;47.698;19.050;2023-05-10T02:17:20;4.75;;;2.83;;
64936;SDS011;51452;47.698;19.050;2023-05-10T02:19:46;4.13;;;2.63;;
64936;SDS011;51452;47.698;19.050;2023-05-10T02:22:12;7.25;;;3.30;;
64936;SDS011;51452;47.698;19.050;2023-05-10T02:24:38;4.72;;;3.13;;
64936;SDS011;51452;47.698;19.050;2023-05-10T02:27:05;3.50;;;2.75;;
64936;SDS011;51452;47.698;19.050;2023-05-10T02:29:31;7.30;;;3.08;;
64936;SDS011;51452;47.698;19.050;2023-05-10T02:31:58;6.03;;;2.60;;
64936;SDS011;51452;47.698;19.050;2023-05-10T02:34:27;3.80;;;2.70;;
64936;SDS011;51452;47.698;19.050;2023-05-10T02:36:55;6.22;;;3.10;;
64936;SDS011;51452;47.698;19.050;2023-05-10T02:39:21;5.82;;;2.92;;
64936;SDS011;51452;47.698;19.050;2023-05-10T02:41:48;4.65;;;3.05;;
64936;SDS011;51452;47.698;19.050;2023-05-10T02:44:15;3.78;;;2.47;;
64936;SDS011;51452;47.698;19.050;2023-05-10T02:46:43;5.85;;;2.60;;
64936;SDS011;51452;47.698;19.050;2023-05-10T02:49:09;3.42;;;2.50;;
64936;SDS011;51452;47.698;19.050;2023-05-10T02:51:35;7.75;;;2.80;;
64936;SDS011;51452;47.698;19.050;2023-05-10T02:54:27;3.72;;;2.70;;
64936;SDS011;51452;47.698;19.050;2023-05-10T02:56:57;5.75;;;2.92;;
64936;SDS011;51452;47.698;19.050;2023-05-10T02:59:27;6.47;;;3.05;;
64936;SDS011;51452;47.698;19.050;2023-05-10T03:01:53;6.00;;;3.05;;
64936;SDS011;51452;47.698;19.050;2023-05-10T03:04:18;5.75;;;2.83;;
64936;SDS011;51452;47.698;19.050;2023-05-10T03:06:44;5.57;;;3.25;;
64936;SDS011;51452;47.698;19.050;2023-05-10T03:09:09;5.07;;;3.15;;
64936;SDS011;51452;47.698;19.050;2023-05-10T03:11:56;5.50;;;3.08;;
64936;SDS011;51452;47.698;19.050;2023-05-10T03:14:42;4.22;;;3.03;;
64936;SDS011;51452;47.698;19.050;2023-05-10T03:19:56;4.50;;;2.95;;
64936;SDS011;51452;47.698;19.050;2023-05-10T03:22:24;5.00;;;3.17;;
64936;SDS011;51452;47.698;19.050;2023-05-10T03:24:53;4.00;;;3.08;;
64936;SDS011;51452;47.698;19.050;2023-05-10T03:27:22;4.20;;;2.88;;
64936;SDS011;51452;47.698;19.050;2023-05-10T03:29:50;6.25;;;3.10;;
64936;SDS011;51452;47.698;19.050;2023-05-10T03:32:16;4.93;;;3.15;;
64936;SDS011;51452;47.698;19.050;2023-05-10T03:34:42;7.80;;;3.30;;
64936;SDS011;51452;47.698;19.050;2023-05-10T03:37:08;5.03;;;3.00;;
64936;SDS011;51452;47.698;19.050;2023-05-10T03:39:34;7.07;;;3.20;;
64936;SDS011;51452;47.698;19.050;2023-05-10T03:41:59;5.25;;;3.28;;
64936;SDS011;51452;47.698;19.050;2023-05-10T03:44:24;4.85;;;3.10;;
64936;SDS011;51452;47.698;19.050;2023-05-10T03:46:50;6.65;;;3.03;;
64936;SDS011;51452;47.698;19.050;2023-05-10T03:49:15;6.13;;;2.97;;
64936;SDS011;51452;47.698;19.050;2023-05-10T03:51:41;4.18;;;3.25;;
64936;SDS011;51452;47.698;19.050;2023-05-10T03:54:06;4.63;;;3.38;;
64936;SDS011;51452;47.698;19.050;2023-05-10T03:56:31;4.90;;;3.25;;
64936;SDS011;51452;47.698;19.050;2023-05-10T03:58:57;4.85;;;3.05;;
64936;SDS011;51452;47.698;19.050;2023-05-10T04:01:23;5.10;;;2.95;;
64936;SDS011;51452;47.698;19.050;2023-05-10T04:03:48;4.53;;;3.00;;
64936;SDS011;51452;47.698;19.050;2023-05-10T04:06:13;5.32;;;3.08;;
64936;SDS011;51452;47.698;19.050;2023-05-10T04:08:39;5.00;;;3.22;;
64936;SDS011;51452;47.698;19.050;2023-05-10T04:11:05;4.15;;;3.00;;
64936;SDS011;51452;47.698;19.050;2023-05-10T04:13:39;8.43;;;3.60;;
64936;SDS011;51452;47.698;19.050;2023-05-10T04:16:05;5.18;;;3.13;;
64936;SDS011;51452;47.698;19.050;2023-05-10T04:18:30;5.15;;;3.13;;
64936;SDS011;51452;47.698;19.050;2023-05-10T04:20:56;6.70;;;3.13;;
64936;SDS011;51452;47.698;19.050;2023-05-10T04:23:22;4.35;;;3.03;;
64936;SDS011;51452;47.698;19.050;2023-05-10T04:25:47;4.85;;;3.38;;
64936;SDS011;51452;47.698;19.050;2023-05-10T04:28:12;6.93;;;3.25;;
64936;SDS011;51452;47.698;19.050;2023-05-10T04:30:38;5.13;;;3.05;;
64936;SDS011;51452;47.698;19.050;2023-05-10T04:33:03;4.32;;;3.20;;
64936;SDS011;51452;47.698;19.050;2023-05-10T04:35:29;8.80;;;3.20;;
64936;SDS011;51452;47.698;19.050;2023-05-10T04:37:54;5.57;;;3.60;;
64936;SDS011;51452;47.698;19.050;2023-05-10T04:40:20;5.45;;;3.33;;
64936;SDS011;51452;47.698;19.050;2023-05-10T04:42:46;5.35;;;3.45;;
64936;SDS011;51452;47.698;19.050;2023-05-10T04:45:11;8.77;;;3.33;;
64936;SDS011;51452;47.698;19.050;2023-05-10T04:47:37;6.40;;;3.50;;
64936;SDS011;51452;47.698;19.050;2023-05-10T04:50:03;6.97;;;3.38;;
64936;SDS011;51452;47.698;19.050;2023-05-10T04:52:29;8.38;;;3.65;;
64936;SDS011;51452;47.698;19.050;2023-05-10T04:54:54;5.38;;;3.22;;
64936;SDS011;51452;47.698;19.050;2023-05-10T04:57:20;6.05;;;3.72;;
64936;SDS011;51452;47.698;19.050;2023-05-10T04:59:45;5.50;;;3.15;;
64936;SDS011;51452;47.698;19.050;2023-05-10T05:02:10;4.20;;;3.00;;
64936;SDS011;51452;47.698;19.050;2023-05-10T05:04:36;6.22;;;3.42;;
64936;SDS011;51452;47.698;19.050;2023-05-10T05:07:01;8.52;;;4.00;;
64936;SDS011;51452;47.698;19.050;2023-05-10T05:09:27;6.00;;;3.22;;
64936;SDS011;51452;47.698;19.050;2023-05-10T05:11:52;6.53;;;3.33;;
64936;SDS011;51452;47.698;19.050;2023-05-10T05:14:17;6.68;;;3.22;;
64936;SDS011;51452;47.698;19.050;2023-05-10T05:16:43;6.47;;;3.38;;
64936;SDS011;51452;47.698;19.050;2023-05-10T05:19:08;5.40;;;3.08;;
64936;SDS011;51452;47.698;19.050;2023-05-10T05:21:34;9.13;;;3.45;;
64936;SDS011;51452;47.698;19.050;2023-05-10T05:23:59;7.57;;;3.30;;
64936;SDS011;51452;47.698;19.050;2023-05-10T05:26:25;6.72;;;2.63;;
64936;SDS011;51452;47.698;19.050;2023-05-10T05:28:51;5.25;;;3.05;;
64936;SDS011;51452;47.698;19.050;2023-05-10T05:31:19;4.22;;;3.33;;
64936;SDS011;51452;47.698;19.050;2023-05-10T05:33:44;5.38;;;3.60;;
64936;SDS011;51452;47.698;19.050;2023-05-10T05:36:10;4.15;;;3.00;;
64936;SDS011;51452;47.698;19.050;2023-05-10T05:38:35;4.13;;;3.55;;
64936;SDS011;51452;47.698;19.050;2023-05-10T05:41:01;4.03;;;3.25;;
64936;SDS011;51452;47.698;19.050;2023-05-10T05:43:27;8.38;;;3.83;;
64936;SDS011;51452;47.698;19.050;2023-05-10T05:45:52;5.60;;;3.90;;
64936;SDS011;51452;47.698;19.050;2023-05-10T05:48:18;6.15;;;3.58;;
64936;SDS011;51452;47.698;19.050;2023-05-10T05:50:44;4.72;;;3.55;;
64936;SDS011;51452;47.698;19.050;2023-05-10T05:53:10;8.32;;;3.60;;
64936;SDS011;51452;47.698;19.050;2023-05-10T05:55:35;6.07;;;3.55;;
64936;SDS011;51452;47.698;19.050;2023-05-10T05:58:01;5.93;;;3.88;;
64936;SDS011;51452;47.698;19.050;2023-05-10T06:00:26;5.15;;;3.53;;
64936;SDS011;51452;47.698;19.050;2023-05-10T06:02:52;5.68;;;3.40;;
64936;SDS011;51452;47.698;19.050;2023-05-10T06:05:17;4.82;;;3.40;;
64936;SDS011;51452;47.698;19.050;2023-05-10T06:07:43;8.93;;;3.30;;
64936;SDS011;51452;47.698;19.050;2023-05-10T06:10:08;6.30;;;3.35;;
64936;SDS011;51452;47.698;19.050;2023-05-10T06:12:34;7.97;;;3.40;;
64936;SDS011;51452;47.698;19.050;2023-05-10T06:15:00;6.38;;;3.63;;
64936;SDS011;51452;47.698;19.050;2023-05-10T06:17:26;5.30;;;3.20;;
64936;SDS011;51452;47.698;19.050;2023-05-10T06:19:51;6.38;;;4.03;;
64936;SDS011;51452;47.698;19.050;2023-05-10T06:22:16;4.30;;;3.30;;
64936;SDS011;51452;47.698;19.050;2023-05-10T06:24:42;5.43;;;3.40;;
64936;SDS011;51452;47.698;19.050;2023-05-10T06:27:08;7.18;;;3.20;;
64936;SDS011;51452;47.698;19.050;2023-05-10T06:29:34;7.78;;;3.40;;
64936;SDS011;51452;47.698;19.050;2023-05-10T06:31:59;9.05;;;3.50;;
64936;SDS011;51452;47.698;19.050;2023-05-10T06:34:24;5.43;;;3.92;;
64936;SDS011;51452;47.698;19.050;2023-05-10T06:36:50;6.00;;;3.58;;
64936;SDS011;51452;47.698;19.050;2023-05-10T06:39:16;5.95;;;3.40;;
64936;SDS011;51452;47.698;19.050;2023-05-10T06:41:42;6.88;;;3.80;;
64936;SDS011;51452;47.698;19.050;2023-05-10T06:44:07;6.43;;;3.60;;
64936;SDS011;51452;47.698;19.050;2023-05-10T06:46:33;5.80;;;3.70;;
64936;SDS011;51452;47.698;19.050;2023-05-10T06:48:58;5.10;;;3.17;;
64936;SDS011;51452;47.698;19.050;2023-05-10T06:51:24;7.35;;;3.75;;
64936;SDS011;51452;47.698;19.050;2023-05-10T06:53:49;6.57;;;3.42;;
64936;SDS011;51452;47.698;19.050;2023-05-10T06:56:14;6.82;;;3.38;;
64936;SDS011;51452;47.698;19.050;2023-05-10T06:58:40;7.65;;;3.38;;
64936;SDS011;51452;47.698;19.050;2023-05-10T07:01:05;4.43;;;3.35;;
64936;SDS011;51452;47.698;19.050;2023-05-10T07:03:31;6.70;;;3.58;;
64936;SDS011;51452;47.698;19.050;2023-05-10T07:06:00;7.47;;;3.60;;
64936;SDS011;51452;47.698;19.050;2023-05-10T07:08:28;5.15;;;3.47;;
64936;SDS011;51452;47.698;19.050;2023-05-10T07:10:59;4.68;;;3.70;;
64936;SDS011;51452;47.698;19.050;2023-05-10T07:13:28;5.68;;;3.42;;
64936;SDS011;51452;47.698;19.050;2023-05-10T07:15:55;4.25;;;3.40;;
64936;SDS011;51452;47.698;19.050;2023-05-10T07:18:20;5.40;;;3.60;;
64936;SDS011;51452;47.698;19.050;2023-05-10T07:20:45;4.75;;;3.10;;
64936;SDS011;51452;47.698;19.050;2023-05-10T07:23:11;8.98;;;3.70;;
64936;SDS011;51452;47.698;19.050;2023-05-10T07:25:36;7.25;;;3.75;;
64936;SDS011;51452;47.698;19.050;2023-05-10T07:28:02;5.30;;;2.97;;
64936;SDS011;51452;47.698;19.050;2023-05-10T07:30:28;5.75;;;3.22;;
64936;SDS011;51452;47.698;19.050;2023-05-10T07:32:53;5.35;;;3.42;;
64936;SDS011;51452;47.698;19.050;2023-05-10T07:35:18;8.15;;;3.70;;
64936;SDS011;51452;47.698;19.050;2023-05-10T07:37:44;5.25;;;3.38;;
64936;SDS011;51452;47.698;19.050;2023-05-10T07:40:09;4.15;;;3.25;;
64936;SDS011;51452;47.698;19.050;2023-05-10T07:42:35;7.00;;;3.10;;
64936;SDS011;51452;47.698;19.050;2023-05-10T07:45:01;6.60;;;2.88;;
64936;SDS011;51452;47.698;19.050;2023-05-10T07:47:26;5.47;;;3.33;;
64936;SDS011;51452;47.698;19.050;2023-05-10T07:49:52;7.93;;;4.90;;
64936;SDS011;51452;47.698;19.050;2023-05-10T07:52:17;3.35;;;2.97;;
64936;SDS011;51452;47.698;19.050;2023-05-10T07:54:42;4.43;;;2.90;;
64936;SDS011;51452;47.698;19.050;2023-05-10T07:57:08;6.45;;;3.03;;
64936;SDS011;51452;47.698;19.050;2023-05-10T07:59:33;4.72;;;3.35;;
64936;SDS011;51452;47.698;19.050;2023-05-10T08:01:59;4.22;;;3.05;;
64936;SDS011;51452;47.698;19.050;2023-05-10T08:04:24;7.38;;;3.47;;
64936;SDS011;51452;47.698;19.050;2023-05-10T08:06:49;5.88;;;3.30;;
64936;SDS011;51452;47.698;19.050;2023-05-10T08:09:15;4.97;;;3.30;;
64936;SDS011;51452;47.698;19.050;2023-05-10T08:11:41;4.72;;;2.72;;
64936;SDS011;51452;47.698;19.050;2023-05-10T08:14:06;4.35;;;3.05;;
64936;SDS011;51452;47.698;19.050;2023-05-10T08:16:31;4.82;;;3.28;;
64936;SDS011;51452;47.698;19.050;2023-05-10T08:18:57;3.58;;;2.95;;
64936;SDS011;51452;47.698;19.050;2023-05-10T08:21:22;5.78;;;2.90;;
64936;SDS011;51452;47.698;19.050;2023-05-10T08:23:48;3.83;;;3.05;;
64936;SDS011;51452;47.698;19.050;2023-05-10T08:26:14;9.32;;;2.92;;
64936;SDS011;51452;47.698;19.050;2023-05-10T08:28:39;7.07;;;3.03;;
64936;SDS011;51452;47.698;19.050;2023-05-10T08:31:05;3.10;;;2.67;;
64936;SDS011;51452;47.698;19.050;2023-05-10T08:33:30;5.10;;;2.80;;
64936;SDS011;51452;47.698;19.050;2023-05-10T08:35:56;4.53;;;2.88;;
64936;SDS011;51452;47.698;19.050;2023-05-10T08:38:21;4.85;;;3.30;;
64936;SDS011;51452;47.698;19.050;2023-05-10T08:40:46;4.57;;;3.35;;
64936;SDS011;51452;47.698;19.050;2023-05-10T08:43:15;4.18;;;2.97;;
64936;SDS011;51452;47.698;19.050;2023-05-10T08:45:42;7.97;;;3.08;;
64936;SDS011;51452;47.698;19.050;2023-05-10T08:48:10;4.43;;;2.85;;
64936;SDS011;51452;47.698;19.050;2023-05-10T08:50:37;3.78;;;2.80;;
64936;SDS011;51452;47.698;19.050;2023-05-10T08:53:12;5.40;;;2.83;;
64936;SDS011;51452;47.698;19.050;2023-05-10T08:55:38;8.73;;;2.92;;
64936;SDS011;51452;47.698;19.050;2023-05-10T08:58:05;3.92;;;2.40;;
64936;SDS011;51452;47.698;19.050;2023-05-10T09:00:32;3.60;;;2.80;;
64936;SDS011;51452;47.698;19.050;2023-05-10T09:02:57;3.53;;;2.75;;
64936;SDS011;51452;47.698;19.050;2023-05-10T09:05:24;3.67;;;2.88;;
64936;SDS011;51452;47.698;19.050;2023-05-10T09:07:50;4.38;;;3.08;;
64936;SDS011;51452;47.698;19.050;2023-05-10T09:10:15;4.70;;;2.80;;
64936;SDS011;51452;47.698;19.050;2023-05-10T09:12:41;5.28;;;2.83;;
64936;SDS011;51452;47.698;19.050;2023-05-10T09:15:07;3.72;;;3.10;;
64936;SDS011;51452;47.698;19.050;2023-05-10T09:17:34;5.72;;;3.00;;
64936;SDS011;51452;47.698;19.050;2023-05-10T09:20:00;5.35;;;3.25;;
64936;SDS011;51452;47.698;19.050;2023-05-10T09:22:26;5.40;;;2.85;;
64936;SDS011;51452;47.698;19.050;2023-05-10T09:25:07;5.38;;;2.65;;
64936;SDS011;51452;47.698;19.050;2023-05-10T09:27:34;6.40;;;3.17;;
64936;SDS011;51452;47.698;19.050;2023-05-10T09:29:59;6.10;;;2.80;;
64936;SDS011;51452;47.698;19.050;2023-05-10T09:32:41;4.47;;;2.38;;
64936;SDS011;51452;47.698;19.050;2023-05-10T09:35:12;4.10;;;3.13;;
64936;SDS011;51452;47.698;19.050;2023-05-10T09:37:42;5.00;;;2.80;;
64936;SDS011;51452;47.698;19.050;2023-05-10T09:40:15;3.25;;;2.55;;
64936;SDS011;51452;47.698;19.050;2023-05-10T09:43:03;6.10;;;2.92;;
64936;SDS011;51452;47.698;19.050;2023-05-10T09:45:30;4.00;;;2.85;;
64936;SDS011;51452;47.698;19.050;2023-05-10T09:47:57;3.13;;;2.28;;
64936;SDS011;51452;47.698;19.050;2023-05-10T09:50:23;4.53;;;2.60;;
64936;SDS011;51452;47.698;19.050;2023-05-10T09:52:56;4.20;;;2.47;;
64936;SDS011;51452;47.698;19.050;2023-05-10T09:55:25;4.38;;;2.30;;
64936;SDS011;51452;47.698;19.050;2023-05-10T09:58:04;3.85;;;2.53;;
64936;SDS011;51452;47.698;19.050;2023-05-10T10:00:36;4.00;;;2.30;;
64936;SDS011;51452;47.698;19.050;2023-05-10T10:03:02;4.85;;;2.42;;
64936;SDS011;51452;47.698;19.050;2023-05-10T10:05:31;7.25;;;2.75;;
64936;SDS011;51452;47.698;19.050;2023-05-10T10:07:58;5.90;;;2.60;;
64936;SDS011;51452;47.698;19.050;2023-05-10T10:10:25;6.05;;;2.35;;
64936;SDS011;51452;47.698;19.050;2023-05-10T10:12:52;6.18;;;2.60;;
64936;SDS011;51452;47.698;19.050;2023-05-10T10:15:17;3.95;;;2.35;;
64936;SDS011;51452;47.698;19.050;2023-05-10T10:17:43;3.40;;;2.80;;
64936;SDS011;51452;47.698;19.050;2023-05-10T10:20:08;6.78;;;2.67;;
64936;SDS011;51452;47.698;19.050;2023-05-10T10:22:34;4.20;;;2.50;;
64936;SDS011;51452;47.698;19.050;2023-05-10T10:25:01;3.50;;;2.28;;
64936;SDS011;51452;47.698;19.050;2023-05-10T10:27:40;4.85;;;2.58;;
64936;SDS011;51452;47.698;19.050;2023-05-10T10:32:59;3.88;;;2.33;;
64936;SDS011;51452;47.698;19.050;2023-05-10T10:35:35;3.13;;;2.28;;
64936;SDS011;51452;47.698;19.050;2023-05-10T10:38:01;3.60;;;2.17;;
64936;SDS011;51452;47.698;19.050;2023-05-10T10:40:28;5.28;;;2.15;;
64936;SDS011;51452;47.698;19.050;2023-05-10T10:42:55;2.70;;;1.92;;
64936;SDS011;51452;47.698;19.050;2023-05-10T10:45:21;3.47;;;1.95;;
64936;SDS011;51452;47.698;19.050;2023-05-10T10:47:48;3.88;;;2.13;;
64936;SDS011;51452;47.698;19.050;2023-05-10T10:50:14;3.33;;;2.20;;
64936;SDS011;51452;47.698;19.050;2023-05-10T10:52:43;2.55;;;2.08;;
64936;SDS011;51452;47.698;19.050;2023-05-10T10:55:13;3.40;;;2.20;;
64936;SDS011;51452;47.698;19.050;2023-05-10T10:57:50;4.20;;;2.10;;
64936;SDS011;51452;47.698;19.050;2023-05-10T11:00:26;4.45;;;2.38;;
64936;SDS011;51452;47.698;19.050;2023-05-10T11:10:52;5.10;;;2.85;;
64936;SDS011;51452;47.698;19.050;2023-05-10T11:13:33;2.97;;;2.20;;
64936;SDS011;51452;47.698;19.050;2023-05-10T11:16:09;2.83;;;2.33;;
64936;SDS011;51452;47.698;19.050;2023-05-10T11:18:36;3.50;;;2.33;;
64936;SDS011;51452;47.698;19.050;2023-05-10T11:21:02;2.88;;;2.28;;
64936;SDS011;51452;47.698;19.050;2023-05-10T11:23:46;2.70;;;2.20;;
64936;SDS011;51452;47.698;19.050;2023-05-10T11:26:14;7.03;;;2.47;;
64936;SDS011;51452;47.698;19.050;2023-05-10T11:28:43;2.55;;;1.95;;
64936;SDS011;51452;47.698;19.050;2023-05-10T11:31:09;3.05;;;1.75;;
64936;SDS011;51452;47.698;19.050;2023-05-10T11:33:51;3.03;;;1.92;;
64936;SDS011;51452;47.698;19.050;2023-05-10T11:38:47;4.50;;;2.00;;
64936;SDS011;51452;47.698;19.050;2023-05-10T11:41:14;3.63;;;2.35;;
64936;SDS011;51452;47.698;19.050;2023-05-10T11:43:41;2.17;;;1.70;;
64936;SDS011;51452;47.698;19.050;2023-05-10T11:46:07;6.63;;;1.90;;
64936;SDS011;51452;47.698;19.050;2023-05-10T11:48:36;2.70;;;1.67;;
64936;SDS011;51452;47.698;19.050;2023-05-10T11:51:03;3.03;;;2.50;;
64936;SDS011;51452;47.698;19.050;2023-05-10T11:53:32;3.40;;;1.92;;
64936;SDS011;51452;47.698;19.050;2023-05-10T11:58:30;4.68;;;1.75;;
64936;SDS011;51452;47.698;19.050;2023-05-10T12:00:56;4.07;;;1.70;;
64936;SDS011;51452;47.698;19.050;2023-05-10T12:03:22;3.88;;;1.85;;
64936;SDS011;51452;47.698;19.050;2023-05-10T12:05:47;5.25;;;2.78;;
64936;SDS011;51452;47.698;19.050;2023-05-10T12:08:19;6.72;;;3.10;;
64936;SDS011;51452;47.698;19.050;2023-05-10T12:10:46;2.15;;;1.70;;
64936;SDS011;51452;47.698;19.050;2023-05-10T12:13:12;5.63;;;2.03;;
64936;SDS011;51452;47.698;19.050;2023-05-10T12:15:39;9.80;;;3.85;;
64936;SDS011;51452;47.698;19.050;2023-05-10T12:18:04;4.40;;;2.55;;
64936;SDS011;51452;47.698;19.050;2023-05-10T12:20:30;6.68;;;3.13;;
64936;SDS011;51452;47.698;19.050;2023-05-10T12:22:56;6.35;;;1.80;;
64936;SDS011;51452;47.698;19.050;2023-05-10T12:25:24;2.55;;;1.65;;
64936;SDS011;51452;47.698;19.050;2023-05-10T12:27:55;6.85;;;1.98;;
64936;SDS011;51452;47.698;19.050;2023-05-10T12:32:48;6.35;;;1.52;;
64936;SDS011;51452;47.698;19.050;2023-05-10T12:35:13;2.47;;;1.75;;
64936;SDS011;51452;47.698;19.050;2023-05-10T12:37:38;3.30;;;1.60;;
64936;SDS011;51452;47.698;19.050;2023-05-10T12:40:07;4.30;;;1.88;;
64936;SDS011;51452;47.698;19.050;2023-05-10T12:42:34;7.68;;;3.40;;
64936;SDS011;51452;47.698;19.050;2023-05-10T12:45:01;9.63;;;4.55;;
64936;SDS011;51452;47.698;19.050;2023-05-10T12:47:27;2.63;;;1.77;;
64936;SDS011;51452;47.698;19.050;2023-05-10T12:49:53;5.32;;;2.05;;
64936;SDS011;51452;47.698;19.050;2023-05-10T12:52:18;3.35;;;1.90;;
64936;SDS011;51452;47.698;19.050;2023-05-10T12:54:43;3.47;;;1.80;;
64936;SDS011;51452;47.698;19.050;2023-05-10T12:57:09;6.47;;;1.80;;
64936;SDS011;51452;47.698;19.050;2023-05-10T12:59:35;4.30;;;1.60;;
64936;SDS011;51452;47.698;19.050;2023-05-10T13:02:00;2.70;;;1.65;;
64936;SDS011;51452;47.698;19.050;2023-05-10T13:04:25;3.30;;;1.60;;
64936;SDS011;51452;47.698;19.050;2023-05-10T13:06:51;3.83;;;1.60;;
64936;SDS011;51452;47.698;19.050;2023-05-10T13:09:16;2.38;;;1.67;;
64936;SDS011;51452;47.698;19.050;2023-05-10T13:11:41;4.10;;;1.70;;
64936;SDS011;51452;47.698;19.050;2023-05-10T13:14:07;7.22;;;1.90;;
64936;SDS011;51452;47.698;19.050;2023-05-10T13:16:32;7.20;;;1.85;;
64936;SDS011;51452;47.698;19.050;2023-05-10T13:18:58;10.80;;;1.67;;
64936;SDS011;51452;47.698;19.050;2023-05-10T13:21:23;4.07;;;1.80;;
64936;SDS011;51452;47.698;19.050;2023-05-10T13:23:50;3.97;;;1.70;;
64936;SDS011;51452;47.698;19.050;2023-05-10T13:26:15;10.50;;;1.80;;
64936;SDS011;51452;47.698;19.050;2023-05-10T13:28:40;4.68;;;1.60;;
64936;SDS011;51452;47.698;19.050;2023-05-10T13:31:06;2.25;;;1.45;;
64936;SDS011;51452;47.698;19.050;2023-05-10T13:33:32;2.38;;;1.70;;
64936;SDS011;51452;47.698;19.050;2023-05-10T13:35:57;10.63;;;1.98;;
64936;SDS011;51452;47.698;19.050;2023-05-10T13:38:22;3.50;;;1.50;;
64936;SDS011;51452;47.698;19.050;2023-05-10T13:40:48;3.00;;;1.70;;
64936;SDS011;51452;47.698;19.050;2023-05-10T13:43:17;2.30;;;1.40;;
64936;SDS011;51452;47.698;19.050;2023-05-10T13:45:42;1.80;;;1.30;;
64936;SDS011;51452;47.698;19.050;2023-05-10T13:48:08;2.70;;;1.58;;
64936;SDS011;51452;47.698;19.050;2023-05-10T13:50:33;2.78;;;1.70;;
64936;SDS011;51452;47.698;19.050;2023-05-10T13:52:58;5.05;;;1.50;;
64936;SDS011;51452;47.698;19.050;2023-05-10T13:55:24;2.97;;;1.30;;
64936;SDS011;51452;47.698;19.050;2023-05-10T13:57:49;2.47;;;1.42;;
64936;SDS011;51452;47.698;19.050;2023-05-10T14:00:15;2.65;;;1.30;;
64936;SDS011;51452;47.698;19.050;2023-05-10T14:02:41;2.88;;;1.45;;
64936;SDS011;51452;47.698;19.050;2023-05-10T14:05:06;1.85;;;1.50;;
64936;SDS011;51452;47.698;19.050;2023-05-10T14:07:32;2.92;;;1.95;;
64936;SDS011;51452;47.698;19.050;2023-05-10T14:09:58;2.10;;;1.60;;
64936;SDS011;51452;47.698;19.050;2023-05-10T14:12:23;1.70;;;1.25;;
64936;SDS011;51452;47.698;19.050;2023-05-10T14:14:48;1.55;;;1.10;;
64936;SDS011;51452;47.698;19.050;2023-05-10T14:17:14;3.13;;;1.35;;
64936;SDS011;51452;47.698;19.050;2023-05-10T14:19:39;4.32;;;1.30;;
64936;SDS011;51452;47.698;19.050;2023-05-10T14:22:05;2.08;;;1.30;;
64936;SDS011;51452;47.698;19.050;2023-05-10T14:24:30;2.40;;;1.45;;
64936;SDS011;51452;47.698;19.050;2023-05-10T14:26:56;2.05;;;1.35;;
64936;SDS011;51452;47.698;19.050;2023-05-10T14:29:22;2.20;;;1.30;;
64936;SDS011;51452;47.698;19.050;2023-05-10T14:31:47;3.83;;;1.20;;
64936;SDS011;51452;47.698;19.050;2023-05-10T14:34:12;2.20;;;1.30;;
64936;SDS011;51452;47.698;19.050;2023-05-10T14:36:38;2.60;;;1.30;;
64936;SDS011;51452;47.698;19.050;2023-05-10T14:39:04;1.48;;;1.10;;
64936;SDS011;51452;47.698;19.050;2023-05-10T14:41:29;3.75;;;1.30;;
64936;SDS011;51452;47.698;19.050;2023-05-10T14:43:55;2.53;;;1.25;;
64936;SDS011;51452;47.698;19.050;2023-05-10T14:46:21;3.15;;;1.20;;
64936;SDS011;51452;47.698;19.050;2023-05-10T14:48:46;2.63;;;1.40;;
64936;SDS011;51452;47.698;19.050;2023-05-10T14:51:12;2.67;;;1.23;;
64936;SDS011;51452;47.698;19.050;2023-05-10T14:53:37;2.20;;;1.17;;
64936;SDS011;51452;47.698;19.050;2023-05-10T14:56:02;1.50;;;1.20;;
64936;SDS011;51452;47.698;19.050;2023-05-10T14:58:28;5.40;;;1.45;;
64936;SDS011;51452;47.698;19.050;2023-05-10T15:00:53;2.13;;;1.40;;
64936;SDS011;51452;47.698;19.050;2023-05-10T15:03:19;2.95;;;1.45;;
64936;SDS011;51452;47.698;19.050;2023-05-10T15:05:44;1.65;;;1.23;;
64936;SDS011;51452;47.698;19.050;2023-05-10T15:08:09;2.28;;;1.38;;
64936;SDS011;51452;47.698;19.050;2023-05-10T15:10:37;2.63;;;1.48;;